Time;durP1;ratioP1;P1;durP2;ratioP2;P2;SDS_P1;SDS_P2;PMS_P1;PMS_P2;Temp;Humidity;BMP_temperature;BMP_pressure;BME280_temperature;BME280_humidity;BME280_pressure;Samples;Min_cycle;Max_cycle;Signal;HPM_P1;HPM_P2
2023/07/21 00:00:34;;;;;;;;;7.00;6.00;;;;;16.89;62.66;99509.16;5019804;28;8899;-59
2023/07/21 00:03:02;;;;;;;;;11.00;10.50;;;;;16.84;63.30;99517.72;5016131;28;8858;-59
2023/07/21 00:05:29;;;;;;;;;8.75;7.50;;;;;16.83;62.96;99515.22;5014991;28;8842;-59
2023/07/21 00:07:57;;;;;;;;;9.25;8.00;;;;;16.80;63.11;99508.31;5014939;28;8877;-60
2023/07/21 00:10:25;;;;;;;;;7.50;7.00;;;;;16.80;63.32;99499.44;5015384;28;8869;-60
2023/07/21 00:12:53;;;;;;;;;10.00;9.50;;;;;16.78;63.32;99501.47;5016142;28;8841;-60
2023/07/21 00:15:21;;;;;;;;;9.50;8.50;;;;;16.74;63.09;99500.09;5015271;28;8846;-59
2023/07/21 00:17:49;;;;;;;;;9.75;9.25;;;;;16.70;63.29;99496.91;5015300;28;8830;-59
2023/07/21 00:20:20;;;;;;;;;9.50;9.00;;;;;16.69;63.48;99497.94;5032991;28;8902;-57
2023/07/21 00:22:49;;;;;;;;;6.50;6.50;;;;;16.69;63.60;99503.31;5035009;28;8848;-59
2023/07/21 00:25:19;;;;;;;;;10.00;9.00;;;;;16.70;63.95;99502.31;5035358;28;8929;-60
2023/07/21 00:27:46;;;;;;;;;12.00;10.50;;;;;16.73;63.39;99501.97;5035648;28;8855;-59
2023/07/21 00:30:14;;;;;;;;;9.00;9.00;;;;;16.74;63.29;99498.28;5018363;28;8826;-59
2023/07/21 00:32:42;;;;;;;;;11.00;9.75;;;;;16.73;64.06;99501.97;5022252;28;8820;-58
2023/07/21 00:35:10;;;;;;;;;9.00;9.00;;;;;16.74;63.15;99498.28;5019229;28;8846;-60
2023/07/21 00:37:38;;;;;;;;;11.00;9.50;;;;;16.72;63.30;99486.81;5014310;28;8834;-59
2023/07/21 00:40:09;;;;;;;;;11.75;11.50;;;;;16.72;63.35;99491.38;5016109;28;8815;-59
2023/07/21 00:42:37;;;;;;;;;11.00;11.00;;;;;16.71;63.88;99490.53;5015859;28;8849;-58
2023/07/21 00:45:04;;;;;;;;;9.75;9.75;;;;;16.68;63.79;99482.81;5027109;28;9523;-59
2023/07/21 00:47:32;;;;;;;;;11.00;9.50;;;;;16.67;63.73;99489.22;5034573;28;8966;-58
2023/07/21 00:50:00;;;;;;;;;9.00;7.00;;;;;16.66;63.61;99482.16;5034396;28;8804;-57
2023/07/21 00:52:28;;;;;;;;;11.00;10.00;;;;;16.64;63.97;99478.78;5018640;28;8818;-58
2023/07/21 00:54:55;;;;;;;;;7.00;7.00;;;;;16.62;63.57;99474.59;5029797;28;8796;-59
2023/07/21 00:57:23;;;;;;;;;8.00;7.00;;;;;16.61;64.11;99473.75;5021750;28;8861;-58
2023/07/21 00:59:51;;;;;;;;;12.00;10.00;;;;;16.59;63.85;99470.41;5015121;28;8937;-59
2023/07/21 01:02:19;;;;;;;;;8.00;8.00;;;;;16.58;64.16;99468.75;5029923;28;8857;-59
2023/07/21 01:04:46;;;;;;;;;7.00;7.00;;;;;16.56;64.38;99469.91;5023094;28;8832;-56
2023/07/21 01:07:15;;;;;;;;;10.50;10.25;;;;;16.53;64.08;99468.41;5032785;28;8841;-58
2023/07/21 01:09:43;;;;;;;;;9.50;8.25;;;;;16.50;64.50;99457.97;5031691;28;8876;-59
2023/07/21 01:12:11;;;;;;;;;9.75;9.50;;;;;16.46;64.74;99462.03;5023587;28;8815;-57
2023/07/21 01:14:38;;;;;;;;;12.00;9.25;;;;;16.43;64.69;99464.22;5024192;28;9505;-59
2023/07/21 01:17:06;;;;;;;;;10.50;10.00;;;;;16.38;64.56;99462.03;5034095;28;8812;-56
2023/07/21 01:19:34;;;;;;;;;10.00;8.50;;;;;16.34;64.75;99457.97;5033880;28;8836;-58
2023/07/21 01:22:01;;;;;;;;;10.00;9.00;;;;;16.28;65.01;99456.00;5034380;28;8820;-58
2023/07/21 01:24:29;;;;;;;;;9.75;8.50;;;;;16.23;65.06;99457.47;5034319;28;8820;-59
2023/07/21 01:26:57;;;;;;;;;9.50;8.75;;;;;16.17;64.75;99452.81;5034614;28;8866;-60
2023/07/21 01:29:25;;;;;;;;;10.00;9.00;;;;;16.12;65.18;99446.25;5034081;28;8828;-58
2023/07/21 01:31:52;;;;;;;;;8.00;8.00;;;;;16.09;65.08;99449.28;5034309;28;9502;-58
2023/07/21 01:34:20;;;;;;;;;9.50;9.25;;;;;16.06;65.00;99449.59;5034141;28;8817;-57
2023/07/21 01:36:48;;;;;;;;;9.00;9.00;;;;;16.02;65.22;99445.59;5034210;28;8832;-56
2023/07/21 01:39:15;;;;;;;;;11.00;10.00;;;;;15.99;65.81;99444.06;5034369;28;8855;-59
2023/07/21 01:41:43;;;;;;;;;12.25;12.25;;;;;15.94;65.98;99434.84;5033952;28;8836;-59
2023/07/21 01:44:11;;;;;;;;;14.00;12.75;;;;;15.89;66.00;99429.13;5034855;28;9561;-57
2023/07/21 01:46:38;;;;;;;;;6.75;6.50;;;;;15.85;65.84;99430.50;5033651;28;8816;-58
2023/07/21 01:49:06;;;;;;;;;10.00;10.00;;;;;15.82;65.65;99425.44;5025162;28;8841;-59
2023/07/21 01:51:35;;;;;;;;;9.00;7.00;;;;;15.80;66.25;99416.72;5014076;28;8830;-56
2023/07/21 01:54:04;;;;;;;;;9.50;9.00;;;;;15.81;65.71;99418.38;5020004;28;8854;-57
2023/07/21 01:56:32;;;;;;;;;9.75;8.50;;;;;15.82;65.63;99422.75;5033257;28;8847;-57
2023/07/21 01:58:59;;;;;;;;;11.50;10.00;;;;;15.83;66.42;99427.09;5033327;28;8820;-57
2023/07/21 02:01:27;;;;;;;;;14.50;13.75;;;;;15.85;65.72;99425.94;5014397;28;8905;-57
2023/07/21 02:03:55;;;;;;;;;10.00;9.00;;;;;15.87;65.72;99413.22;5014098;28;8830;-58
2023/07/21 02:06:24;;;;;;;;;13.00;12.75;;;;;15.86;65.70;99411.50;5013641;28;8841;-57
2023/07/21 02:08:52;;;;;;;;;9.50;8.50;;;;;15.86;65.66;99411.50;5014119;28;8869;-59
2023/07/21 02:11:20;;;;;;;;;15.25;13.50;;;;;15.86;66.21;99408.81;5013851;28;8826;-57
2023/07/21 02:13:48;;;;;;;;;13.25;10.00;;;;;15.85;66.19;99411.69;5013679;28;8844;-60
2023/07/21 02:16:16;;;;;;;;;10.00;8.50;;;;;15.82;66.11;99415.53;5014651;28;8814;-57
2023/07/21 02:18:44;;;;;;;;;10.50;10.00;;;;;15.80;66.19;99422.94;5022918;28;8820;-57
2023/07/21 02:21:11;;;;;;;;;14.50;14.00;;;;;15.78;66.18;99418.75;5033655;28;8824;-57
2023/07/21 02:23:39;;;;;;;;;13.75;12.50;;;;;15.78;66.09;99424.09;5033534;28;8824;-57
2023/07/21 02:26:07;;;;;;;;;11.50;10.00;;;;;15.77;65.66;99412.50;5033356;28;8859;-59
2023/07/21 02:28:35;;;;;;;;;15.50;14.00;;;;;15.77;65.94;99406.31;5033428;28;8824;-59
2023/07/21 02:31:03;;;;;;;;;10.75;9.50;;;;;15.76;66.01;99407.34;5033150;28;8826;-60
2023/07/21 02:33:31;;;;;;;;;12.25;12.25;;;;;15.74;66.01;99402.13;5029982;28;8832;-57
2023/07/21 02:35:59;;;;;;;;;14.00;11.00;;;;;15.71;66.31;99397.06;5031265;28;8826;-58
2023/07/21 02:38:27;;;;;;;;;12.00;10.00;;;;;15.71;66.63;99397.06;5032500;28;8856;-57
2023/07/21 02:40:55;;;;;;;;;10.50;10.00;;;;;15.70;66.60;99400.75;5033189;28;9508;-57
2023/07/21 02:43:23;;;;;;;;;11.25;11.00;;;;;15.67;66.15;99401.13;5034733;28;8815;-58
2023/07/21 02:45:51;;;;;;;;;13.00;12.75;;;;;15.67;66.65;99400.25;5031910;28;9489;-57
2023/07/21 02:48:18;;;;;;;;;8.25;8.00;;;;;15.65;66.05;99387.03;5028387;28;8919;-59
2023/07/21 02:50:46;;;;;;;;;12.25;10.00;;;;;15.62;66.70;99392.72;5013296;28;8826;-57
2023/07/21 02:53:14;;;;;;;;;13.50;12.00;;;;;15.60;66.50;99391.19;5013423;28;8835;-58
2023/07/21 02:55:42;;;;;;;;;7.50;7.50;;;;;15.55;66.73;99386.34;5014407;28;8847;-59
2023/07/21 02:58:10;;;;;;;;;12.25;12.25;;;;;15.53;66.38;99392.88;5031128;28;8818;-59
2023/07/21 03:00:37;;;;;;;;;8.50;8.50;;;;;15.50;66.75;99388.69;5032632;28;8858;-58
2023/07/21 03:03:06;;;;;;;;;9.75;9.25;;;;;15.47;67.02;99390.88;5016466;28;8826;-58
2023/07/21 03:05:34;;;;;;;;;11.50;11.50;;;;;15.45;66.85;99390.19;5017395;28;8826;-59
2023/07/21 03:08:02;;;;;;;;;11.50;10.75;;;;;15.42;67.22;99391.38;5017525;28;8860;-57
2023/07/21 03:10:29;;;;;;;;;12.25;12.00;;;;;15.39;67.06;99386.31;5017317;28;8985;-58
2023/07/21 03:12:57;;;;;;;;;10.50;9.75;;;;;15.38;67.10;99387.34;5016890;28;9534;-59
2023/07/21 03:15:25;;;;;;;;;12.50;11.00;;;;;15.34;67.49;99391.38;5017627;28;8980;-57
2023/07/21 03:17:53;;;;;;;;;13.25;9.25;;;;;15.29;67.46;99384.75;5032252;28;8824;-57
2023/07/21 03:20:21;;;;;;;;;11.00;10.50;;;;;15.24;67.00;99385.25;5035903;28;8844;-58
2023/07/21 03:22:48;;;;;;;;;13.00;12.00;;;;;15.22;67.27;99384.59;5035372;28;9462;-57
2023/07/21 03:25:16;;;;;;;;;9.50;9.25;;;;;15.21;67.33;99395.47;5036159;28;8828;-59
2023/07/21 03:27:45;;;;;;;;;15.75;14.50;;;;;15.20;67.27;99381.25;5036260;28;8832;-58
2023/07/21 03:30:14;;;;;;;;;11.75;11.00;;;;;15.20;67.45;99381.25;5035999;28;8962;-58
2023/07/21 03:32:42;;;;;;;;;9.25;9.00;;;;;15.20;67.78;99375.88;5036058;28;8890;-57
2023/07/21 03:35:10;;;;;;;;;11.00;11.00;;;;;15.22;67.25;99386.41;5035679;28;8839;-59
2023/07/21 03:37:37;;;;;;;;;14.00;14.00;;;;;15.22;67.46;99381.06;5035700;28;8827;-58
2023/07/21 03:40:06;;;;;;;;;9.00;8.75;;;;;15.21;67.21;99387.44;5035992;28;8987;-57
2023/07/21 03:42:34;;;;;;;;;12.00;11.00;;;;;15.21;67.94;99382.06;5036667;28;8885;-57
2023/07/21 03:45:04;;;;;;;;;9.50;9.25;;;;;15.19;67.32;99381.41;5035525;28;8812;-56
2023/07/21 03:47:31;;;;;;;;;12.00;11.00;;;;;15.18;67.78;99382.41;5035595;28;8944;-57
2023/07/21 03:49:59;;;;;;;;;8.00;8.00;;;;;15.16;67.53;99379.06;5035532;28;8826;-58
2023/07/21 03:52:27;;;;;;;;;12.25;12.25;;;;;15.15;67.92;99378.22;5035646;28;8836;-58
2023/07/21 03:54:54;;;;;;;;;13.00;12.00;;;;;15.15;67.83;99372.00;5036072;28;8828;-59
2023/07/21 03:57:22;;;;;;;;;6.00;6.00;;;;;15.17;67.23;99372.69;5035820;28;8924;-59
2023/07/21 03:59:50;;;;;;;;;10.75;10.75;;;;;15.15;67.21;99378.22;5035619;28;8828;-57
2023/07/21 04:02:17;;;;;;;;;10.50;10.50;;;;;15.15;67.29;99377.34;5035625;28;8820;-57
2023/07/21 04:04:46;;;;;;;;;12.00;11.50;;;;;15.15;67.95;99382.72;5035453;28;8855;-57
2023/07/21 04:07:14;;;;;;;;;12.25;11.00;;;;;15.15;67.93;99382.72;5035097;28;8828;-58
2023/07/21 04:09:42;;;;;;;;;14.50;12.75;;;;;15.14;67.44;99381.91;5035215;28;8856;-56
2023/07/21 04:12:09;;;;;;;;;12.00;12.00;;;;;15.13;67.55;99382.06;5026208;28;9329;-57
2023/07/21 04:14:37;;;;;;;;;10.00;9.00;;;;;15.12;67.43;99377.69;5035378;28;8836;-58
2023/07/21 04:17:04;;;;;;;;;15.00;12.50;;;;;15.11;67.64;99386.75;5034745;28;8860;-56
2023/07/21 04:19:32;;;;;;;;;14.25;13.75;;;;;15.08;67.99;99381.69;5015611;28;8818;-57
2023/07/21 04:22:01;;;;;;;;;12.25;10.00;;;;;15.07;67.38;99385.38;5015621;28;8815;-58
2023/07/21 04:24:28;;;;;;;;;12.00;12.00;;;;;15.08;67.40;99384.38;5034806;28;8843;-59
2023/07/21 04:26:56;;;;;;;;;12.50;11.00;;;;;15.08;68.13;99379.88;5035169;28;8893;-59
2023/07/21 04:29:25;;;;;;;;;11.75;10.00;;;;;15.09;67.86;99378.03;5034896;28;8820;-59
2023/07/21 04:32:03;;;;;;;;;14.50;12.00;;;;;15.13;67.61;99371.31;5034866;28;8816;-58
2023/07/21 04:34:31;;;;;;;;;7.00;6.75;;;;;15.16;67.75;99374.50;5034790;28;8812;-58
2023/07/21 04:36:59;;;;;;;;;12.00;12.00;;;;;15.19;67.48;99376.88;5034344;28;8796;-60
2023/07/21 04:39:27;;;;;;;;;12.75;11.50;;;;;15.25;67.74;99375.38;5034485;28;8858;-58
2023/07/21 04:41:55;;;;;;;;;12.25;12.00;;;;;15.27;67.56;99376.03;5032971;28;9513;-58
2023/07/21 04:44:26;;;;;;;;;12.00;10.00;;;;;15.31;67.39;99374.72;5018296;28;8905;-57
2023/07/21 04:46:54;;;;;;;;;13.00;12.75;;;;;15.32;67.44;99376.44;5014766;28;8810;-59
2023/07/21 04:49:21;;;;;;;;;8.50;8.00;;;;;15.31;67.36;99372.91;5014622;28;8841;-57
2023/07/21 04:51:49;;;;;;;;;13.00;12.00;;;;;15.33;67.56;99372.75;5014686;28;8822;-59
2023/07/21 04:54:17;;;;;;;;;9.75;8.50;;;;;15.35;66.81;99366.22;5015356;28;8867;-59
2023/07/21 04:56:44;;;;;;;;;10.00;10.00;;;;;15.41;67.13;99375.44;5023157;28;8808;-59
2023/07/21 04:59:12;;;;;;;;;12.00;12.00;;;;;15.45;67.27;99374.06;5034500;28;8820;-59
2023/07/21 05:01:41;;;;;;;;;14.50;12.75;;;;;15.51;66.78;99378.78;5034553;28;8823;-59
2023/07/21 05:04:08;;;;;;;;;10.75;10.00;;;;;15.55;66.59;99380.97;5034391;28;8877;-60
2023/07/21 05:06:36;;;;;;;;;12.50;12.00;;;;;15.62;67.23;99378.47;5034189;28;8840;-58
2023/07/21 05:09:04;;;;;;;;;11.25;11.25;;;;;15.66;66.57;99379.78;5034379;28;9550;-58
2023/07/21 05:11:33;;;;;;;;;12.25;10.75;;;;;15.74;66.56;99385.16;5019136;28;8833;-58
2023/07/21 05:14:02;;;;;;;;;14.50;12.00;;;;;15.79;66.88;99391.69;5013993;28;8860;-59
2023/07/21 05:16:29;;;;;;;;;9.00;9.00;;;;;15.84;66.32;99385.84;5013690;28;8962;-58
2023/07/21 05:18:57;;;;;;;;;12.00;11.50;;;;;15.87;66.62;99386.34;5014129;28;8838;-59
2023/07/21 05:21:25;;;;;;;;;5.75;5.75;;;;;15.90;66.61;99391.38;5013749;28;8840;-59
2023/07/21 05:23:52;;;;;;;;;12.00;10.75;;;;;15.95;66.62;99401.59;5014430;28;8818;-59
2023/07/21 05:26:21;;;;;;;;;10.00;8.50;;;;;15.95;66.14;99393.53;5020293;28;8824;-59
2023/07/21 05:28:49;;;;;;;;;14.50;12.50;;;;;15.93;66.69;99396.41;5033608;28;8824;-59
2023/07/21 05:31:17;;;;;;;;;13.50;12.00;;;;;15.95;66.31;99391.72;5033402;28;8836;-59
2023/07/21 05:33:45;;;;;;;;;12.75;12.25;;;;;15.97;66.86;99395.06;5033740;28;8965;-59
2023/07/21 05:36:13;;;;;;;;;12.00;10.50;;;;;15.99;66.23;99393.03;5033690;28;8824;-59
2023/07/21 05:38:41;;;;;;;;;11.50;10.50;;;;;16.03;66.47;99390.84;5033381;28;8852;-60
2023/07/21 05:41:08;;;;;;;;;10.00;6.75;;;;;16.05;66.44;99391.50;5033675;28;8979;-59
2023/07/21 05:43:36;;;;;;;;;9.00;9.00;;;;;16.07;66.65;99392.22;5034773;28;8816;-59
2023/07/21 05:46:05;;;;;;;;;10.50;10.00;;;;;16.12;66.13;99395.19;5019891;28;8802;-59
2023/07/21 05:48:33;;;;;;;;;7.00;7.00;;;;;16.18;66.04;99398.06;5028422;28;8908;-59
2023/07/21 05:51:01;;;;;;;;;8.00;8.00;;;;;16.24;65.89;99386.59;5033310;28;8955;-57
2023/07/21 05:53:28;;;;;;;;;10.00;10.00;;;;;16.31;65.80;99384.91;5033737;28;8848;-58
2023/07/21 05:55:56;;;;;;;;;12.00;10.00;;;;;16.40;65.74;99382.06;5029701;28;8816;-60
2023/07/21 05:58:24;;;;;;;;;12.50;12.00;;;;;16.51;65.24;99387.09;5013016;28;8818;-59
2023/07/21 06:00:52;;;;;;;;;12.75;10.50;;;;;16.61;65.18;99387.72;5013508;28;8830;-59
2023/07/21 06:03:20;;;;;;;;;9.75;9.50;;;;;16.70;65.52;99383.97;5013214;28;8803;-58
2023/07/21 06:05:49;;;;;;;;;6.75;6.00;;;;;16.80;65.36;99389.16;5015002;28;8820;-60
2023/07/21 06:08:17;;;;;;;;;13.00;12.00;;;;;16.93;64.49;99382.19;5013527;28;8842;-58
2023/07/21 06:10:45;;;;;;;;;14.00;12.00;;;;;17.06;64.33;99378.94;5014363;28;8846;-59
2023/07/21 06:13:13;;;;;;;;;7.00;7.00;;;;;17.17;64.42;99378.53;5022604;28;8856;-60
2023/07/21 06:15:41;;;;;;;;;12.25;12.25;;;;;17.34;63.91;99380.09;5032146;28;8808;-59
2023/07/21 06:18:08;;;;;;;;;12.00;10.00;;;;;17.43;63.70;99379.91;5031926;28;8954;-59
2023/07/21 06:20:36;;;;;;;;;15.50;14.00;;;;;17.49;63.54;99379.19;5025623;28;8850;-60
2023/07/21 06:23:06;;;;;;;;;14.60;14.60;;;;;17.60;63.79;99375.25;5026909;28;8812;-57
2023/07/21 06:25:34;;;;;;;;;16.00;13.50;;;;;17.74;63.25;99371.75;5032240;28;8966;-60
2023/07/21 06:28:02;;;;;;;;;9.80;9.60;;;;;17.82;63.26;99377.91;5023330;28;8946;-59
2023/07/21 06:30:30;;;;;;;;;15.00;12.20;;;;;17.92;63.26;99373.09;5031375;28;8828;-60
2023/07/21 06:32:58;;;;;;;;;12.60;10.60;;;;;18.02;62.78;99375.53;5031170;28;8859;-58
2023/07/21 06:35:27;;;;;;;;;12.00;10.20;;;;;18.11;62.49;99375.28;5030837;28;8859;-57
2023/07/21 06:37:55;;;;;;;;;15.00;13.00;;;;;18.20;62.62;99374.19;5030394;28;8821;-59
2023/07/21 06:40:23;;;;;;;;;12.80;10.20;;;;;18.28;62.98;99373.28;5031600;28;8850;-58
2023/07/21 06:42:51;;;;;;;;;18.00;18.00;;;;;18.32;62.99;99383.53;5032068;28;8832;-57
2023/07/21 06:45:19;;;;;;;;;10.50;9.50;;;;;18.33;63.02;99377.13;5031750;28;8824;-59
2023/07/21 06:47:47;;;;;;;;;12.80;12.00;;;;;18.31;62.77;99373.78;5031867;28;8840;-59
2023/07/21 06:50:15;;;;;;;;;15.20;15.20;;;;;18.29;63.37;99366.84;5031744;28;8958;-60
2023/07/21 06:52:43;;;;;;;;;16.40;15.40;;;;;18.31;62.99;99370.22;5012897;28;9021;-59
2023/07/21 06:55:11;;;;;;;;;20.40;16.80;;;;;18.35;63.23;99372.38;5030906;28;8832;-59
2023/07/21 06:57:39;;;;;;;;;17.40;15.00;;;;;18.44;62.78;99371.25;5030708;28;9539;-59
2023/07/21 07:00:08;;;;;;;;;18.40;17.60;;;;;18.51;63.06;99374.06;5029229;28;8864;-59
2023/07/21 07:02:36;;;;;;;;;15.20;14.20;;;;;18.59;62.47;99366.69;5030817;28;8820;-59
2023/07/21 07:05:03;;;;;;;;;15.00;13.00;;;;;18.70;62.23;99360.84;5028919;28;8824;-59
2023/07/21 07:07:31;;;;;;;;;16.40;15.00;;;;;18.80;61.83;99357.81;5020657;28;8879;-58
2023/07/21 07:09:59;;;;;;;;;17.80;15.60;;;;;18.88;62.16;99361.28;5012382;28;8826;-58
2023/07/21 07:12:27;;;;;;;;;16.40;14.60;;;;;19.00;61.47;99362.47;5011257;28;8838;-59
2023/07/21 07:14:55;;;;;;;;;16.80;15.40;;;;;19.11;61.65;99353.88;5011869;28;8947;-58
2023/07/21 07:17:22;;;;;;;;;20.20;18.40;;;;;19.27;61.31;99359.06;5028804;28;8820;-57
2023/07/21 07:19:51;;;;;;;;;21.00;19.60;;;;;19.42;60.45;99356.31;5031239;28;8832;-60
2023/07/21 07:22:19;;;;;;;;;20.60;18.40;;;;;19.52;60.55;99354.97;5031042;28;8831;-60
2023/07/21 07:24:47;;;;;;;;;21.80;20.00;;;;;19.59;60.66;99355.88;5030896;28;8858;-59
2023/07/21 07:27:14;;;;;;;;;10.40;9.00;;;;;19.64;60.23;99358.81;5031368;28;8835;-60
2023/07/21 07:29:43;;;;;;;;;15.60;15.20;;;;;19.67;60.27;99360.31;5031436;28;8844;-58
2023/07/21 07:32:11;;;;;;;;;16.00;15.20;;;;;19.65;60.60;99359.66;5031100;28;8840;-59
2023/07/21 07:34:43;;;;;;;;;19.20;17.00;;;;;19.63;60.52;99357.16;5030991;28;8842;-60
2023/07/21 07:37:12;;;;;;;;;14.00;11.60;;;;;19.67;60.60;99361.16;5031334;28;8912;-60
2023/07/21 07:39:46;;;;;;;;;26.40;22.60;;;;;19.85;59.79;99356.09;5031510;28;8933;-57
2023/07/21 07:42:14;;;;;;;;;18.00;16.00;;;;;20.02;60.03;99349.38;5031748;28;8862;-59
2023/07/21 07:44:47;;;;;;;;;19.80;17.80;;;;;20.15;59.74;99359.47;5030545;28;8844;-60
2023/07/21 07:47:30;;;;;;;;;17.80;16.20;;;;;20.17;59.60;99358.25;5034774;28;8876;-59
2023/07/21 07:49:59;;;;;;;;;16.60;16.00;;;;;20.22;59.56;99363.91;5034476;28;8875;-60
2023/07/21 07:52:28;;;;;;;;;16.60;16.00;;;;;20.22;59.62;99363.06;5034410;28;8827;-59
2023/07/21 07:54:56;;;;;;;;;15.00;13.40;;;;;20.16;59.85;99359.28;5035046;28;8851;-58
2023/07/21 07:57:26;;;;;;;;;14.80;14.00;;;;;20.15;59.95;99356.78;5034944;28;8839;-58
2023/07/21 07:59:58;;;;;;;;;17.60;16.60;;;;;20.13;59.99;99351.59;5034218;28;8820;-59
2023/07/21 08:02:31;;;;;;;;;13.80;13.20;;;;;20.16;60.01;99351.19;5020966;28;8837;-60
2023/07/21 08:04:59;;;;;;;;;15.20;15.20;;;;;20.21;59.58;99351.44;5015156;28;8830;-60
2023/07/21 08:07:27;;;;;;;;;16.00;15.80;;;;;20.32;59.61;99345.47;5016208;28;8842;-60
2023/07/21 08:09:55;;;;;;;;;13.20;12.20;;;;;20.42;59.20;99343.25;5014928;28;8919;-60
2023/07/21 08:12:24;;;;;;;;;17.20;16.20;;;;;20.49;59.17;99346.81;5019496;28;8855;-60
2023/07/21 08:14:53;;;;;;;;;14.00;13.00;;;;;20.61;58.77;99344.38;5033821;28;8878;-60
2023/07/21 08:17:24;;;;;;;;;13.80;13.40;;;;;20.74;59.11;99351.53;5033650;28;8836;-60
2023/07/21 08:19:53;;;;;;;;;15.40;15.40;;;;;20.83;58.90;99353.06;5015685;28;8911;-58
2023/07/21 08:22:21;;;;;;;;;17.20;15.40;;;;;20.94;58.40;99338.09;5013711;28;8823;-60
2023/07/21 08:24:49;;;;;;;;;23.00;20.00;;;;;21.09;58.25;99345.03;5014354;28;8947;-58
2023/07/21 08:27:17;;;;;;;;;18.40;17.80;;;;;21.21;58.13;99350.72;5013732;28;9650;-59
2023/07/21 08:29:45;;;;;;;;;20.60;19.40;;;;;21.33;57.59;99346.38;5017540;28;8928;-58
2023/07/21 08:32:13;;;;;;;;;20.00;14.60;;;;;21.51;56.89;99333.91;5029731;28;8860;-60
2023/07/21 08:34:41;;;;;;;;;18.00;18.00;;;;;21.73;57.03;99345.41;5013667;28;8845;-60
2023/07/21 08:37:09;;;;;;;;;14.80;13.60;;;;;21.84;56.45;99342.94;5013748;28;8834;-59
2023/07/21 08:39:37;;;;;;;;;13.00;12.00;;;;;21.92;56.32;99345.44;5014984;28;8815;-59
2023/07/21 08:42:07;;;;;;;;;14.60;14.00;;;;;22.00;56.00;99352.53;5014508;28;8897;-60
2023/07/21 08:44:35;;;;;;;;;18.00;16.20;;;;;22.07;56.32;99343.34;5023707;28;8937;-60
2023/07/21 08:47:03;;;;;;;;;14.80;12.80;;;;;22.15;55.91;99347.72;5033250;28;8854;-59
2023/07/21 08:49:31;;;;;;;;;10.20;9.20;;;;;22.24;55.82;99341.84;5033823;28;8840;-60
2023/07/21 08:51:59;;;;;;;;;13.00;11.60;;;;;22.34;56.00;99339.56;5034196;28;9559;-60
2023/07/21 08:54:26;;;;;;;;;15.60;15.00;;;;;22.38;55.73;99331.84;5019099;28;8814;-60
2023/07/21 08:56:54;;;;;;;;;12.80;12.00;;;;;22.41;55.49;99339.53;5012669;28;8828;-60
2023/07/21 08:59:22;;;;;;;;;13.60;13.20;;;;;22.43;55.59;99340.19;5013585;28;8822;-60
2023/07/21 09:01:52;;;;;;;;;14.00;12.60;;;;;22.55;55.57;99325.75;5013780;28;9005;-60
2023/07/21 09:04:21;;;;;;;;;12.20;12.00;;;;;22.74;55.06;99324.84;5014854;28;8838;-60
2023/07/21 09:06:49;;;;;;;;;14.00;12.40;;;;;22.89;54.68;99330.00;5032582;28;8808;-60
2023/07/21 09:09:17;;;;;;;;;12.00;12.00;;;;;22.99;54.79;99324.97;5031580;28;8836;-60
2023/07/21 09:11:47;;;;;;;;;13.00;12.80;;;;;23.05;54.83;99314.06;5032859;28;8851;-60
2023/07/21 09:14:18;;;;;;;;;12.60;12.60;;;;;23.11;54.57;99325.94;5032870;28;8920;-59
2023/07/21 09:16:48;;;;;;;;;9.80;9.40;;;;;22.94;54.65;99319.34;5033228;28;8970;-58
2023/07/21 09:19:16;;;;;;;;;16.00;16.00;;;;;22.80;55.12;99323.16;5020517;28;8890;-59
2023/07/21 09:21:45;;;;;;;;;14.60;14.00;;;;;22.66;55.43;99322.38;5033098;28;8824;-60
2023/07/21 09:24:15;;;;;;;;;13.00;12.40;;;;;22.55;55.74;99323.03;5033305;28;8828;-60
2023/07/21 09:26:45;;;;;;;;;13.80;12.00;;;;;22.46;56.07;99318.06;5033204;28;8835;-58
2023/07/21 09:29:13;;;;;;;;;9.40;8.40;;;;;22.38;55.72;99332.66;5033369;28;8832;-60
2023/07/21 09:31:41;;;;;;;;;12.80;12.80;;;;;22.40;55.89;99329.72;5033388;28;8836;-58
2023/07/21 09:34:12;;;;;;;;;11.80;11.80;;;;;22.43;55.66;99330.19;5032677;28;9545;-59
2023/07/21 09:36:40;;;;;;;;;11.80;11.80;;;;;22.45;55.71;99321.78;5032387;28;8863;-59
2023/07/21 09:39:12;;;;;;;;;11.60;11.60;;;;;22.45;55.97;99321.78;5033038;28;8827;-60
2023/07/21 09:41:40;;;;;;;;;12.60;12.00;;;;;22.44;56.02;99331.84;5032790;28;9036;-60
2023/07/21 09:44:10;;;;;;;;;12.40;11.60;;;;;22.45;56.12;99338.09;5033019;28;8857;-60
2023/07/21 09:46:38;;;;;;;;;13.00;12.60;;;;;22.47;55.93;99320.53;5032673;28;8932;-60
2023/07/21 09:49:06;;;;;;;;;12.60;12.00;;;;;22.54;55.75;99328.69;5032540;28;8962;-60
2023/07/21 09:51:36;;;;;;;;;13.00;12.40;;;;;22.62;55.11;99323.03;5031803;28;8944;-60
2023/07/21 09:54:04;;;;;;;;;8.80;8.40;;;;;22.78;55.53;99322.53;5032492;28;8929;-60
2023/07/21 09:56:33;;;;;;;;;12.00;10.40;;;;;22.90;54.84;99326.25;5035436;28;8836;-58
2023/07/21 09:59:04;;;;;;;;;13.20;12.00;;;;;22.98;54.39;99324.13;5034156;28;8886;-60
2023/07/21 10:01:35;;;;;;;;;10.00;9.80;;;;;23.15;54.62;99329.94;5033920;28;8843;-60
2023/07/21 10:04:07;;;;;;;;;6.40;6.40;;;;;23.26;53.96;99330.06;5018194;28;9492;-59
2023/07/21 10:06:35;;;;;;;;;13.00;13.00;;;;;23.36;53.87;99327.72;5014332;28;8935;-60
2023/07/21 10:09:08;;;;;;;;;8.60;6.80;;;;;23.48;54.01;99325.13;5030226;28;8816;-60
2023/07/21 10:11:37;;;;;;;;;11.80;10.00;;;;;23.64;53.38;99330.03;5031546;28;9519;-60
2023/07/21 10:14:07;;;;;;;;;9.80;9.20;;;;;23.77;53.20;99327.22;5030885;28;8965;-59
2023/07/21 10:16:35;;;;;;;;;7.80;6.60;;;;;23.89;52.79;99326.31;5033058;28;9552;-60
2023/07/21 10:19:03;;;;;;;;;10.00;10.00;;;;;23.93;52.57;99323.97;5018478;28;8819;-60
2023/07/21 10:21:33;;;;;;;;;12.00;12.00;;;;;23.94;52.69;99325.63;5013456;28;8838;-59
2023/07/21 10:24:06;;;;;;;;;13.40;13.00;;;;;24.00;52.42;99327.47;5028141;28;8826;-58
2023/07/21 10:26:34;;;;;;;;;11.40;9.00;;;;;24.16;52.50;99329.63;5018606;28;8826;-57
2023/07/21 10:29:02;;;;;;;;;10.00;10.00;;;;;24.30;51.96;99323.00;5032254;28;8847;-57
2023/07/21 10:31:36;;;;;;;;;9.80;9.00;;;;;24.48;51.91;99323.88;5031932;28;8921;-58
2023/07/21 10:34:04;;;;;;;;;9.80;9.60;;;;;24.78;50.93;99326.69;5016239;28;8845;-60
2023/07/21 10:36:32;;;;;;;;;7.00;5.80;;;;;24.93;50.98;99324.41;5011047;28;8840;-60
2023/07/21 10:39:00;;;;;;;;;10.00;9.40;;;;;25.29;50.44;99322.50;5012346;28;8860;-58
2023/07/21 10:41:30;;;;;;;;;11.00;11.00;;;;;25.72;50.11;99318.47;5012982;28;9468;-60
2023/07/21 10:44:00;;;;;;;;;10.00;10.00;;;;;26.15;48.92;99315.47;5027825;28;8846;-60
2023/07/21 10:46:28;;;;;;;;;8.40;7.00;;;;;26.54;48.40;99312.03;5020977;28;8812;-58
2023/07/21 10:48:58;;;;;;;;;10.00;10.00;;;;;26.78;47.71;99311.78;5032391;28;8848;-59
2023/07/21 10:51:29;;;;;;;;;11.00;11.00;;;;;26.80;48.33;99308.81;5031350;28;8920;-61
2023/07/21 10:53:57;;;;;;;;;5.00;5.00;;;;;26.75;47.81;99312.25;5031976;28;8824;-61
2023/07/21 10:56:32;;;;;;;;;10.60;9.80;;;;;26.68;47.90;99313.44;5029969;28;8960;-60
2023/07/21 10:59:00;;;;;;;;;8.80;8.20;;;;;26.70;48.04;99311.34;5017240;28;8834;-59
2023/07/21 11:01:37;;;;;;;;;11.20;11.00;;;;;26.81;48.30;99315.94;5011071;28;8819;-60
2023/07/21 11:04:05;;;;;;;;;7.60;6.60;;;;;26.89;47.97;99297.25;5012573;28;8828;-60
2023/07/21 11:06:33;;;;;;;;;9.00;9.00;;;;;27.08;47.63;99303.38;5011986;28;8974;-61
2023/07/21 11:09:01;;;;;;;;;8.00;7.40;;;;;27.16;47.64;99306.56;5012377;28;8823;-59
2023/07/21 11:11:29;;;;;;;;;8.20;8.00;;;;;27.53;46.92;99307.84;5013383;28;8836;-57
2023/07/21 11:13:57;;;;;;;;;8.00;8.00;;;;;27.66;46.74;99313.00;5029987;28;8836;-60
2023/07/21 11:16:26;;;;;;;;;8.60;8.40;;;;;27.41;47.03;99312.56;5025817;28;8814;-59
2023/07/21 11:18:54;;;;;;;;;12.20;11.60;;;;;26.93;47.10;99309.34;5024782;28;8842;-59
2023/07/21 11:21:23;;;;;;;;;10.60;10.60;;;;;26.39;48.34;99312.50;5034095;28;8843;-60
2023/07/21 11:23:52;;;;;;;;;10.00;9.60;;;;;26.03;48.91;99307.28;5034978;28;9533;-59
2023/07/21 11:26:20;;;;;;;;;10.60;9.80;;;;;25.77;49.71;99313.16;5035037;28;9551;-60
2023/07/21 11:28:50;;;;;;;;;9.00;9.00;;;;;25.67;49.41;99309.34;5034488;28;8831;-59
2023/07/21 11:31:19;;;;;;;;;11.60;10.80;;;;;25.69;49.37;99305.31;5034977;28;8843;-58
2023/07/21 11:33:48;;;;;;;;;11.20;10.00;;;;;25.72;48.92;99307.56;5035343;28;8832;-59